Terminal Aerodrome Forecast
Issued by NWS Dallas/Fort Worth, TX

Home | Current Version | Previous Version | Text Only | Print | Product List | Glossary On
Versions: 1 2 3 4 5 6 7 8 9 10 11 12 13 14 15 16 17 18 19 20 21 22 23 24 25 26 27 28
000
FTUS44 KFWD 311800 AAA
TAFDFW
TAF AMD
KDFW 311828Z 3118/0124 13012KT P6SM VCSH OVC020
     FM312300 15014KT 6SM -RA BKN012 OVC025
     FM010300 16014KT 4SM SHRA BR OVC007
     FM011600 30012KT P6SM OVC025
     FM012000 33020G30KT P6SM SCT035=

USA.gov is the U.S. government's official web portal to all federal, state and local government web resources and services.